createdAt,value
2019-05-02T00:00:56.433Z,99.90
2019-05-02T00:03:26.546Z,99.90
2019-05-02T00:05:55.014Z,99.90
2019-05-02T00:08:23.568Z,99.90
2019-05-02T00:10:52.569Z,99.90
2019-05-02T00:13:21.105Z,99.90
2019-05-02T00:15:51.334Z,99.90
2019-05-02T00:18:20.556Z,99.90
2019-05-02T00:20:49.037Z,99.90
2019-05-02T00:23:17.499Z,99.90
2019-05-02T00:25:47.248Z,99.90
2019-05-02T00:28:16.106Z,99.90
2019-05-02T00:30:44.784Z,99.90
2019-05-02T00:33:13.180Z,99.90
2019-05-02T00:35:45.995Z,99.90
2019-05-02T00:38:11.847Z,99.90
2019-05-02T00:40:40.259Z,99.90
2019-05-02T00:43:08.667Z,99.90
2019-05-02T00:45:37.148Z,99.90
2019-05-02T00:48:07.179Z,99.90
2019-05-02T00:50:40.307Z,99.90
2019-05-02T00:53:11.989Z,99.90
2019-05-02T00:55:37.711Z,99.90
2019-05-02T00:58:06.120Z,99.90
2019-05-02T01:00:36.522Z,99.90
2019-05-02T01:03:05.482Z,99.90
2019-05-02T01:05:38.341Z,99.90
2019-05-02T01:08:04.080Z,99.90
2019-05-02T01:10:32.493Z,99.90
2019-05-02T01:13:00.893Z,99.90
2019-05-02T01:15:29.476Z,99.90
2019-05-02T01:18:01.183Z,99.90
2019-05-02T01:20:29.355Z,99.90
2019-05-02T01:22:57.878Z,99.90
2019-05-02T01:25:26.282Z,99.90
2019-05-02T01:28:17.277Z,99.90
2019-05-02T01:31:02.472Z,99.90
2019-05-02T01:33:32.501Z,99.90
2019-05-02T01:36:08.538Z,99.90
2019-05-02T01:38:38.555Z,99.90
2019-05-02T01:41:07.035Z,99.90
2019-05-02T01:43:35.428Z,99.90
2019-05-02T01:46:03.830Z,99.90
2019-05-02T01:48:32.246Z,99.90
2019-05-02T01:51:04.532Z,99.90
2019-05-02T01:53:34.141Z,99.90
2019-05-02T01:56:00.924Z,99.90
2019-05-02T01:58:29.310Z,99.90
2019-05-02T02:00:57.731Z,99.90
2019-05-02T02:03:26.123Z,99.90
2019-05-02T02:05:54.534Z,99.90
2019-05-02T02:08:27.435Z,99.90
2019-05-02T02:10:56.077Z,99.90
2019-05-02T02:13:23.434Z,99.90
2019-05-02T02:15:51.851Z,99.90
2019-05-02T02:18:22.113Z,99.90
2019-05-02T02:21:04.856Z,99.90
2019-05-02T02:23:44.969Z,99.90
2019-05-02T02:26:18.363Z,99.90
2019-05-02T02:28:46.749Z,99.90
2019-05-02T02:31:15.170Z,99.90
2019-05-02T02:33:47.652Z,99.90
2019-05-02T02:36:13.703Z,99.90
2019-05-02T02:38:42.129Z,99.90
2019-05-02T02:41:13.049Z,99.90
2019-05-02T02:43:41.515Z,99.90
2019-05-02T02:46:11.564Z,99.90
2019-05-02T02:48:40.830Z,99.90
2019-05-02T02:51:22.110Z,99.90
2019-05-02T02:53:40.280Z,99.90
2019-05-02T02:56:09.471Z,99.90
2019-05-02T02:58:45.698Z,99.90
2019-05-02T03:01:08.123Z,99.90
2019-05-02T03:03:37.505Z,99.90
2019-05-02T03:06:08.044Z,99.90
2019-05-02T03:08:45.191Z,99.90
2019-05-02T03:11:06.357Z,99.90
2019-05-02T03:13:51.439Z,99.90
2019-05-02T03:16:14.423Z,99.90
2019-05-02T03:18:43.592Z,99.90
2019-05-02T03:21:13.331Z,99.90
2019-05-02T03:23:42.186Z,99.90
2019-05-02T03:26:14.759Z,99.90
2019-05-02T03:28:40.825Z,99.90
2019-05-02T03:31:24.132Z,99.90
2019-05-02T03:33:53.558Z,99.90
2019-05-02T03:36:26.157Z,99.90
2019-05-02T03:38:41.255Z,99.90
2019-05-02T03:41:13.107Z,99.90
2019-05-02T03:43:39.946Z,99.90
2019-05-02T03:46:13.539Z,99.90
2019-05-02T03:48:38.721Z,99.90
2019-05-02T03:51:19.967Z,99.90
2019-05-02T03:53:37.631Z,99.90
2019-05-02T03:56:11.619Z,99.90
2019-05-02T03:58:36.186Z,99.90
2019-05-02T04:01:04.660Z,99.90
2019-05-02T04:03:40.773Z,99.90
2019-05-02T04:06:04.495Z,99.90
2019-05-02T04:08:33.497Z,99.90
2019-05-02T04:11:16.854Z,99.90
2019-05-02T04:13:45.252Z,99.90
2019-05-02T04:16:15.469Z,99.90
2019-05-02T04:18:54.632Z,99.90
2019-05-02T04:21:14.160Z,99.90
2019-05-02T04:23:42.643Z,99.90
2019-05-02T04:26:12.728Z,99.90
2019-05-02T04:28:45.387Z,99.90
2019-05-02T04:31:11.427Z,99.90
2019-05-02T04:33:39.846Z,99.90
2019-05-02T04:36:15.306Z,99.90
2019-05-02T04:38:44.018Z,99.90
2019-05-02T04:41:09.286Z,99.90
2019-05-02T04:43:40.642Z,99.90
2019-05-02T04:46:12.060Z,99.90
2019-05-02T04:48:44.412Z,99.90
2019-05-02T04:51:14.399Z,99.90
2019-05-02T04:53:42.153Z,99.90
2019-05-02T04:56:10.635Z,99.90
2019-05-02T04:58:40.672Z,99.90
2019-05-02T05:01:10.186Z,99.90
2019-05-02T05:03:38.657Z,99.90
2019-05-02T05:06:11.909Z,99.90
2019-05-02T05:08:38.909Z,99.90
2019-05-02T05:11:07.821Z,99.90
2019-05-02T05:13:37.350Z,99.90
2019-05-02T05:16:08.656Z,99.90
2019-05-02T05:18:37.819Z,99.90
2019-05-02T05:21:10.381Z,99.90
2019-05-02T05:23:38.291Z,99.90
2019-05-02T05:26:07.321Z,99.90
2019-05-02T05:28:40.578Z,99.90
2019-05-02T05:31:07.667Z,99.90
2019-05-02T05:33:37.788Z,99.90
2019-05-02T05:36:08.185Z,99.90
2019-05-02T05:38:40.465Z,99.90
2019-05-02T05:41:08.941Z,99.90
2019-05-02T05:43:38.017Z,99.90
2019-05-02T05:46:10.636Z,99.90
2019-05-02T05:48:40.655Z,99.90
2019-05-02T05:51:07.380Z,99.90
2019-05-02T05:53:37.515Z,99.90
2019-05-02T05:56:07.933Z,99.90
2019-05-02T05:58:39.905Z,99.90
2019-05-02T06:01:09.855Z,99.90
2019-05-02T06:03:41.902Z,99.90
2019-05-02T06:06:08.314Z,99.90
2019-05-02T06:08:36.822Z,99.90
2019-05-02T06:11:05.224Z,99.90
2019-05-02T06:13:33.647Z,99.90
2019-05-02T06:16:03.328Z,99.90
2019-05-02T06:18:36.405Z,99.90
2019-05-02T06:21:03.200Z,99.90
2019-05-02T06:23:36.399Z,99.90
2019-05-02T06:26:07.837Z,99.90
2019-05-02T06:28:36.208Z,99.90
2019-05-02T06:31:07.174Z,99.90
2019-05-02T06:33:33.315Z,99.90
2019-05-02T06:36:02.499Z,99.90
2019-05-02T06:38:31.008Z,99.90
2019-05-02T06:40:59.411Z,99.80
2019-05-02T06:43:27.834Z,99.60
2019-05-02T06:45:56.236Z,99.60
2019-05-02T06:48:24.652Z,99.60
2019-05-02T06:50:53.118Z,99.10
2019-05-02T06:53:21.558Z,98.80
2019-05-02T06:55:49.941Z,98.80
2019-05-02T06:58:18.369Z,98.80
2019-05-02T07:00:57.726Z,98.30
2019-05-02T07:03:16.980Z,98.10
2019-05-02T07:05:45.378Z,97.50
2019-05-02T07:08:14.272Z,97.20
2019-05-02T07:10:44.889Z,97.10
2019-05-02T07:13:15.020Z,97.20
2019-05-02T07:15:44.889Z,97.10
2019-05-02T07:18:14.942Z,96.80
2019-05-02T07:20:43.350Z,96.30
2019-05-02T07:23:16.372Z,95.60
2019-05-02T07:25:43.933Z,95.80
2019-05-02T07:28:12.070Z,95.60
2019-05-02T07:30:40.614Z,95.60
2019-05-02T07:33:09.066Z,95.50
2019-05-02T07:35:37.549Z,95.60
2019-05-02T07:38:06.071Z,95.80
2019-05-02T07:40:34.558Z,95.60
2019-05-02T07:43:03.003Z,95.40
2019-05-02T07:45:31.624Z,94.80
2019-05-02T07:48:01.580Z,94.70
2019-05-02T07:50:30.201Z,94.20
2019-05-02T07:52:58.656Z,94.00
2019-05-02T07:55:27.219Z,93.60
2019-05-02T07:57:55.703Z,93.50
2019-05-02T08:00:24.236Z,93.40
2019-05-02T08:02:52.711Z,92.60
2019-05-02T08:05:23.701Z,92.20
2019-05-02T08:07:53.382Z,91.80
2019-05-02T08:10:23.888Z,91.70
2019-05-02T08:12:51.885Z,91.00
2019-05-02T08:15:20.371Z,89.20
2019-05-02T08:17:53.303Z,87.20
2019-05-02T08:20:19.571Z,86.10
2019-05-02T08:22:50.353Z,86.00
2019-05-02T08:25:19.285Z,84.90
2019-05-02T08:27:49.342Z,83.40
2019-05-02T08:30:19.566Z,84.10
2019-05-02T08:32:47.967Z,83.60
2019-05-02T08:35:16.450Z,83.30
2019-05-02T08:37:44.876Z,83.50
2019-05-02T08:40:14.128Z,83.80
2019-05-02T08:42:42.540Z,83.80
2019-05-02T08:45:11.014Z,84.20
2019-05-02T08:47:39.424Z,82.60
2019-05-02T08:50:07.981Z,82.50
2019-05-02T08:52:36.930Z,82.00
2019-05-02T08:55:09.875Z,80.50
2019-05-02T08:57:37.577Z,80.80
2019-05-02T09:00:06.546Z,79.90
2019-05-02T09:02:41.136Z,78.90
2019-05-02T09:05:06.212Z,78.30
2019-05-02T09:07:37.004Z,78.50
2019-05-02T09:10:08.933Z,77.90
2019-05-02T09:12:42.083Z,76.70
2019-05-02T09:15:07.739Z,75.50
2019-05-02T09:17:38.895Z,75.90
2019-05-02T09:20:14.995Z,76.80
2019-05-02T09:22:37.039Z,74.50
2019-05-02T09:25:07.574Z,73.60
2019-05-02T09:27:35.987Z,72.30
2019-05-02T09:30:07.604Z,70.80
2019-05-02T09:32:37.264Z,69.30
2019-05-02T09:35:06.586Z,67.90
2019-05-02T09:37:35.059Z,67.20
2019-05-02T09:40:06.906Z,66.10
2019-05-02T09:42:33.775Z,65.60
2019-05-02T09:45:03.100Z,66.00
2019-05-02T09:47:33.301Z,65.40
2019-05-02T09:50:12.921Z,62.70
2019-05-02T09:52:44.142Z,64.60
2019-05-02T09:55:12.364Z,64.40
2019-05-02T09:57:42.632Z,63.90
2019-05-02T10:00:18.363Z,65.10
2019-05-02T10:02:46.791Z,67.10
2019-05-02T10:05:15.922Z,65.40
2019-05-02T10:07:44.326Z,66.20
2019-05-02T10:10:12.893Z,66.70
2019-05-02T10:12:42.695Z,66.70
2019-05-02T10:15:14.137Z,66.90
2019-05-02T10:17:46.589Z,65.30
2019-05-02T10:20:12.966Z,64.90
2019-05-02T10:22:43.699Z,63.70
2019-05-02T10:25:11.939Z,63.60
2019-05-02T10:27:43.885Z,62.00
2019-05-02T10:30:15.601Z,61.10
2019-05-02T10:32:42.878Z,61.30
2019-05-02T10:35:13.097Z,59.40
2019-05-02T10:37:43.083Z,59.60
2019-05-02T10:40:13.501Z,59.20
2019-05-02T10:42:42.057Z,57.20
2019-05-02T10:45:12.959Z,55.70
2019-05-02T10:47:42.255Z,54.50
2019-05-02T10:50:13.091Z,54.40
2019-05-02T10:52:42.531Z,54.80
2019-05-02T10:55:12.866Z,60.40
2019-05-02T10:57:42.082Z,61.30
2019-05-02T11:00:13.785Z,61.50
2019-05-02T11:03:02.670Z,61.10
2019-05-02T11:05:32.853Z,59.70
2019-05-02T11:08:04.633Z,59.00
2019-05-02T11:10:32.316Z,58.40
2019-05-02T11:13:05.457Z,57.50
2019-05-02T11:15:35.559Z,55.90
2019-05-02T11:18:04.505Z,55.40
2019-05-02T11:20:33.346Z,56.40
2019-05-02T11:23:02.271Z,56.20
2019-05-02T11:25:31.906Z,56.40
2019-05-02T11:28:02.917Z,56.50
2019-05-02T11:30:31.973Z,56.50
2019-05-02T11:33:02.893Z,56.00
2019-05-02T11:35:31.838Z,56.00
2019-05-02T11:38:02.334Z,55.80
2019-05-02T11:40:32.126Z,55.60
2019-05-02T11:43:02.791Z,55.10
2019-05-02T11:45:32.366Z,55.50
2019-05-02T11:48:08.609Z,54.50
2019-05-02T11:50:34.051Z,54.90
2019-05-02T11:53:02.862Z,55.30
2019-05-02T11:55:31.932Z,55.90
2019-05-02T11:58:07.929Z,56.00
2019-05-02T12:00:32.373Z,56.60
2019-05-02T12:03:18.404Z,56.00
2019-05-02T12:05:46.818Z,56.30
2019-05-02T12:08:15.221Z,56.40
2019-05-02T12:10:43.767Z,55.90
2019-05-02T12:13:15.969Z,54.80
2019-05-02T12:15:44.325Z,56.50
2019-05-02T12:18:12.956Z,55.50
2019-05-02T12:20:42.593Z,55.30
2019-05-02T12:23:13.014Z,54.50
2019-05-02T12:25:42.322Z,55.40
2019-05-02T12:28:12.003Z,54.80
2019-05-02T12:30:41.845Z,53.90
2019-05-02T12:33:12.286Z,55.50
2019-05-02T12:35:43.017Z,55.30
2019-05-02T12:38:12.225Z,56.10
2019-05-02T12:40:42.236Z,55.90
2019-05-02T12:43:12.069Z,55.90
2019-05-02T12:45:42.114Z,55.50
2019-05-02T12:48:12.854Z,54.50
2019-05-02T12:50:41.835Z,54.90
2019-05-02T12:53:12.405Z,54.10
2019-05-02T12:55:42.102Z,54.00
2019-05-02T12:58:12.578Z,54.70
2019-05-02T13:00:42.869Z,54.20
2019-05-02T13:03:12.777Z,54.20
2019-05-02T13:05:42.642Z,54.10
2019-05-02T13:08:12.223Z,54.40
2019-05-02T13:11:01.818Z,53.80
2019-05-02T13:13:24.405Z,53.60
2019-05-02T13:15:52.803Z,53.60
2019-05-02T13:18:23.234Z,53.30
2019-05-02T13:20:52.786Z,53.90
2019-05-02T13:23:38.306Z,52.90
2019-05-02T13:26:18.253Z,52.10
2019-05-02T13:28:37.896Z,52.10
2019-05-02T13:31:14.012Z,52.20
2019-05-02T13:33:52.585Z,53.30
2019-05-02T13:36:48.178Z,53.30
2019-05-02T13:39:22.003Z,53.50
2019-05-02T13:41:52.200Z,53.20
2019-05-02T13:44:22.418Z,53.00
2019-05-02T13:46:50.811Z,53.10
2019-05-02T13:49:19.218Z,52.50
2019-05-02T13:51:47.622Z,53.10
2019-05-02T13:54:16.032Z,51.90
2019-05-02T13:56:46.071Z,52.70
2019-05-02T13:59:14.577Z,52.40
2019-05-02T14:01:43.133Z,51.90
2019-05-02T14:04:14.928Z,51.80
2019-05-02T14:06:42.565Z,52.10
2019-05-02T14:09:26.314Z,52.70
2019-05-02T14:12:12.934Z,51.70
2019-05-02T14:14:42.357Z,52.10
2019-05-02T14:17:11.732Z,51.80
2019-05-02T14:19:42.076Z,51.90
2019-05-02T14:22:10.370Z,52.10
2019-05-02T14:24:38.806Z,52.60
2019-05-02T14:27:11.672Z,53.10
2019-05-02T14:29:37.331Z,52.70
2019-05-02T14:32:19.708Z,53.00
2019-05-02T14:34:44.758Z,52.70
2019-05-02T14:37:13.235Z,51.50
2019-05-02T14:39:42.861Z,52.80
2019-05-02T14:42:15.208Z,51.70
2019-05-02T14:45:03.603Z,50.70
2019-05-02T14:47:17.713Z,50.30
2019-05-02T14:49:42.944Z,47.80
2019-05-02T14:52:12.670Z,48.20
2019-05-02T14:54:43.827Z,48.50
2019-05-02T14:57:17.251Z,49.00
2019-05-02T14:59:43.160Z,49.80
2019-05-02T15:02:13.439Z,49.60
2019-05-02T15:04:44.541Z,48.10
2019-05-02T15:07:12.911Z,48.10
2019-05-02T15:09:41.854Z,47.90
2019-05-02T15:12:16.022Z,48.30
2019-05-02T15:14:40.616Z,48.40
2019-05-02T15:17:09.008Z,48.20
2019-05-02T15:19:37.433Z,49.10
2019-05-02T15:22:05.847Z,49.90
2019-05-02T15:24:37.514Z,51.10
2019-05-02T15:27:11.813Z,51.40
2019-05-02T15:29:34.756Z,52.30
2019-05-02T15:32:07.267Z,53.20
2019-05-02T15:34:43.281Z,53.50
2019-05-02T15:37:09.775Z,53.80
2019-05-02T15:42:08.321Z,55.00
2019-05-02T15:44:36.719Z,55.60
2019-05-02T15:47:06.898Z,57.70
2019-05-02T15:49:41.683Z,60.30
2019-05-02T15:52:09.136Z,65.40
2019-05-02T15:54:37.531Z,70.20
2019-05-02T15:57:06.011Z,73.50
2019-05-02T15:59:42.046Z,75.80
2019-05-02T16:02:07.033Z,77.80
2019-05-02T16:04:37.060Z,79.10
2019-05-02T16:07:08.431Z,80.60
2019-05-02T16:09:35.738Z,82.30
2019-05-02T16:12:05.489Z,84.20
2019-05-02T16:14:35.981Z,86.10
2019-05-02T16:17:04.176Z,87.30
2019-05-02T16:19:34.226Z,88.20
2019-05-02T16:22:08.125Z,88.70
2019-05-02T16:24:36.607Z,88.90
2019-05-02T16:27:05.092Z,88.30
2019-05-02T16:29:33.479Z,87.50
2019-05-02T16:32:09.500Z,89.90
2019-05-02T16:34:57.855Z,89.20
2019-05-02T16:37:26.460Z,89.20
2019-05-02T16:39:55.137Z,89.60
2019-05-02T16:42:23.671Z,89.40
2019-05-02T16:44:54.594Z,88.40
2019-05-02T16:47:22.346Z,89.00
2019-05-02T16:49:53.139Z,87.70
2019-05-02T16:52:22.152Z,87.60
2019-05-02T16:54:52.615Z,87.20
2019-05-02T16:57:22.177Z,86.50
2019-05-02T16:59:53.871Z,87.00
2019-05-02T17:02:21.810Z,86.80
2019-05-02T17:04:52.018Z,86.30
2019-05-02T17:07:22.248Z,86.00
2019-05-02T17:09:52.278Z,85.20
2019-05-02T17:12:20.678Z,86.40
2019-05-02T17:15:07.846Z,89.50
2019-05-02T17:17:36.338Z,90.90
2019-05-02T17:20:07.224Z,91.60
2019-05-02T17:22:36.999Z,91.80
2019-05-02T17:25:06.940Z,91.50
2019-05-02T17:27:35.343Z,91.50
2019-05-02T17:30:06.351Z,91.00
2019-05-02T17:32:37.661Z,91.40
2019-05-02T17:35:09.881Z,90.80
2019-05-02T17:37:40.582Z,91.00
2019-05-02T17:40:07.694Z,90.80
2019-05-02T17:42:36.170Z,91.00
2019-05-02T17:45:09.027Z,91.10
2019-05-02T17:47:37.696Z,91.00
2019-05-02T17:50:18.429Z,91.10
2019-05-02T17:52:56.098Z,91.10
2019-05-02T17:55:22.448Z,91.20
2019-05-02T17:57:51.633Z,91.40
2019-05-02T18:00:24.730Z,91.60
2019-05-02T18:02:53.330Z,91.80
2019-05-02T18:05:26.464Z,92.10
2019-05-02T18:07:52.673Z,92.20
2019-05-02T18:10:23.038Z,92.50
2019-05-02T18:12:57.557Z,92.70
2019-05-02T18:15:22.838Z,92.90
2019-05-02T18:17:52.319Z,93.30
2019-05-02T18:20:21.931Z,93.60
2019-05-02T18:22:51.919Z,93.40
2019-05-02T18:25:21.678Z,93.50
2019-05-02T18:27:51.807Z,93.60
2019-05-02T18:30:25.015Z,93.60
2019-05-02T18:32:52.867Z,94.00
2019-05-02T18:35:22.016Z,94.20
2019-05-02T18:37:51.796Z,94.10
2019-05-02T18:40:27.779Z,94.30
2019-05-02T18:42:51.928Z,94.20
2019-05-02T18:45:28.514Z,94.30
2019-05-02T18:48:02.356Z,94.40
2019-05-02T18:50:29.415Z,94.40
2019-05-02T18:52:58.055Z,94.10
2019-05-02T18:55:26.599Z,94.30
2019-05-02T18:57:56.985Z,94.10
2019-05-02T19:00:27.494Z,94.30
2019-05-02T19:02:56.611Z,94.20
2019-05-02T19:05:26.586Z,94.40
2019-05-02T19:07:56.460Z,94.90
2019-05-02T19:10:25.235Z,95.30
2019-05-02T19:12:56.108Z,95.30
2019-05-02T19:15:23.958Z,95.40
2019-05-02T19:17:52.878Z,95.30
2019-05-02T19:20:24.531Z,95.40
2019-05-02T19:22:56.874Z,94.80
2019-05-02T19:25:23.166Z,94.70
2019-05-02T19:27:57.624Z,94.80
2019-05-02T19:30:42.285Z,94.80
2019-05-02T19:33:12.123Z,94.80
2019-05-02T19:35:43.173Z,94.80
2019-05-02T19:38:11.893Z,94.80
2019-05-02T19:40:42.606Z,95.00
2019-05-02T19:43:14.100Z,95.10
2019-05-02T19:45:40.757Z,95.10
2019-05-02T19:48:09.153Z,95.40
2019-05-02T19:50:41.748Z,95.60
2019-05-02T19:53:14.881Z,95.40
2019-05-02T19:55:39.231Z,95.50
2019-05-02T19:58:07.979Z,95.90
2019-05-02T20:00:41.194Z,96.30
2019-05-02T20:03:06.908Z,96.90
2019-05-02T20:05:35.297Z,97.00
2019-05-02T20:08:03.762Z,97.00
2019-05-02T20:10:32.341Z,97.20
2019-05-02T20:13:02.872Z,97.50
2019-05-02T20:15:32.851Z,97.80
2019-05-02T20:18:04.615Z,98.20
2019-05-02T20:21:02.655Z,98.50
2019-05-02T20:23:35.282Z,98.80
2019-05-02T20:26:01.370Z,98.70
2019-05-02T20:28:31.645Z,99.20
2019-05-02T20:31:01.783Z,99.60
2019-05-02T20:33:32.429Z,99.90
2019-05-02T20:36:01.792Z,99.90
2019-05-02T20:38:32.259Z,99.90
2019-05-02T20:41:02.754Z,99.90
2019-05-02T20:43:32.269Z,99.90
2019-05-02T20:46:02.613Z,99.90
2019-05-02T20:48:32.194Z,99.90
2019-05-02T20:51:02.773Z,99.90
2019-05-02T20:53:33.855Z,99.90
2019-05-02T20:56:01.830Z,99.90
2019-05-02T20:58:32.486Z,99.90
2019-05-02T21:01:07.780Z,99.90
2019-05-02T21:03:31.999Z,99.90
2019-05-02T21:06:04.723Z,99.90
2019-05-02T21:08:41.877Z,99.90
2019-05-02T21:11:12.327Z,99.90
2019-05-02T21:13:41.852Z,99.90
2019-05-02T21:16:12.101Z,99.90
2019-05-02T21:18:42.272Z,99.90
2019-05-02T21:21:12.640Z,99.90
2019-05-02T21:23:47.036Z,99.90
2019-05-02T21:26:11.047Z,99.90
2019-05-02T21:28:39.458Z,99.90
2019-05-02T21:31:07.859Z,99.90
2019-05-02T21:33:38.961Z,99.90
2019-05-02T21:36:07.749Z,99.90
2019-05-02T21:38:36.620Z,99.90
2019-05-02T21:41:08.479Z,99.90
2019-05-02T21:43:36.882Z,99.90
2019-05-02T21:46:05.370Z,99.90
2019-05-02T21:48:33.767Z,99.90
2019-05-02T21:51:15.963Z,99.90
2019-05-02T21:53:54.983Z,99.90
2019-05-02T21:56:23.452Z,99.90
2019-05-02T21:59:07.858Z,99.90
2019-05-02T22:01:46.464Z,99.90
2019-05-02T22:04:14.927Z,99.90
2019-05-02T22:06:43.712Z,99.90
2019-05-02T22:09:12.496Z,99.90
2019-05-02T22:11:42.940Z,99.90
2019-05-02T22:14:13.296Z,99.90
2019-05-02T22:16:42.248Z,99.90
2019-05-02T22:19:10.803Z,99.90
2019-05-02T22:21:39.215Z,99.90
2019-05-02T22:24:11.451Z,99.90
2019-05-02T22:26:37.767Z,99.90
2019-05-02T22:29:06.308Z,99.90
2019-05-02T22:31:34.786Z,99.90
2019-05-02T22:34:03.289Z,99.90
2019-05-02T22:36:32.744Z,99.90
2019-05-02T22:39:03.017Z,99.90
2019-05-02T22:41:32.603Z,99.90
2019-05-02T22:44:01.888Z,99.90
2019-05-02T22:46:43.925Z,99.90
2019-05-02T22:49:14.584Z,99.90
2019-05-02T22:51:43.883Z,99.90
2019-05-02T22:54:26.351Z,99.90
2019-05-02T22:56:42.703Z,99.90
2019-05-02T22:59:11.280Z,99.90
2019-05-02T23:01:41.962Z,99.90
2019-05-02T23:04:09.882Z,99.90
2019-05-02T23:06:38.304Z,99.90
2019-05-02T23:09:07.847Z,99.90
2019-05-02T23:11:36.704Z,99.90
2019-05-02T23:14:06.043Z,99.90
2019-05-02T23:16:34.726Z,99.90
2019-05-02T23:19:03.214Z,99.90
2019-05-02T23:21:32.558Z,99.90
2019-05-02T23:24:02.892Z,99.90
2019-05-02T23:26:47.996Z,99.90
2019-05-02T23:29:17.886Z,99.90
2019-05-02T23:31:46.305Z,99.90
2019-05-02T23:34:14.698Z,99.90
2019-05-02T23:36:43.180Z,99.90
2019-05-02T23:39:12.479Z,99.90
2019-05-02T23:41:42.026Z,99.90
2019-05-02T23:44:12.308Z,99.90
2019-05-02T23:46:42.361Z,99.90
2019-05-02T23:49:12.758Z,99.90
2019-05-02T23:51:42.742Z,99.90
2019-05-02T23:54:12.894Z,99.90
2019-05-02T23:56:42.995Z,99.90
2019-05-02T23:59:11.910Z,99.90
